Time;durP1;ratioP1;P1;durP2;ratioP2;P2;SDS_P1;SDS_P2;PMS_P1;PMS_P2;Temp;Humidity;BMP_temperature;BMP_pressure;BME280_temperature;BME280_humidity;BME280_pressure;Samples;Min_cycle;Max_cycle;Signal;HPM_P1;HPM_P2
2023/04/21 00:00:08;;;;;;;;;12.25;10.75;;;;;12.09;70.10;99483.53;5075120;28;45446;-73
2023/04/21 00:02:38;;;;;;;;;12.50;11.50;;;;;11.96;70.48;99466.00;5072982;28;45949;-73
2023/04/21 00:05:09;;;;;;;;;12.00;11.50;;;;;12.06;70.15;99473.06;5073941;28;45555;-70
2023/04/21 00:07:36;;;;;;;;;14.25;12.50;;;;;11.91;71.31;99458.09;5073876;28;45450;-72
2023/04/21 00:10:04;;;;;;;;;14.25;11.75;;;;;11.90;71.91;99471.22;5061263;28;45485;-73
2023/04/21 00:12:30;;;;;;;;;13.50;12.25;;;;;11.81;71.90;99468.47;5060910;28;45673;-73
2023/04/21 00:14:55;;;;;;;;;12.00;10.75;;;;;11.81;71.60;99471.97;5073864;28;45758;-72
2023/04/21 00:17:21;;;;;;;;;11.00;10.00;;;;;11.82;71.40;99467.63;5062609;28;45445;-73
2023/04/21 00:19:46;;;;;;;;;12.25;11.50;;;;;11.74;71.49;99452.72;5073379;28;45428;-72
2023/04/21 00:22:13;;;;;;;;;13.00;12.00;;;;;11.69;71.71;99450.94;5072047;28;46314;-68
2023/04/21 00:24:39;;;;;;;;;12.00;11.25;;;;;11.71;71.80;99460.53;5074376;28;45654;-73
2023/04/21 00:27:05;;;;;;;;;12.50;11.50;;;;;11.71;71.13;99450.06;5076958;28;45524;-73
2023/04/21 00:29:31;;;;;;;;;13.00;11.25;;;;;11.77;71.16;99454.50;5077564;28;45468;-73
2023/04/21 00:31:56;;;;;;;;;10.25;10.00;;;;;11.77;70.94;99448.38;5076137;28;45441;-73
2023/04/21 00:34:22;;;;;;;;;16.25;15.00;;;;;11.67;72.17;99448.31;5076324;27;45480;-73
2023/04/21 00:36:48;;;;;;;;;16.25;15.00;;;;;11.54;72.75;99452.56;5076904;28;45612;-70
2023/04/21 00:39:13;;;;;;;;;14.25;13.25;;;;;11.44;73.40;99457.69;5076362;28;45447;-72
2023/04/21 00:41:39;;;;;;;;;12.50;12.50;;;;;11.38;72.94;99445.47;5056501;28;45868;-69
2023/04/21 00:44:07;;;;;;;;;15.75;15.00;;;;;11.42;73.27;99448.97;5074298;28;45300;-72
2023/04/21 00:46:34;;;;;;;;;15.50;13.50;;;;;11.44;73.17;99444.63;5076791;28;45481;-74
2023/04/21 00:49:03;;;;;;;;;14.75;13.75;;;;;11.48;73.34;99441.16;5076681;28;45383;-68
2023/04/21 00:51:31;;;;;;;;;12.00;12.00;;;;;11.49;72.73;99437.69;5058535;28;46370;-69
2023/04/21 00:53:59;;;;;;;;;15.50;10.25;;;;;11.48;72.64;99430.69;5074393;28;45420;-72
2023/04/21 00:56:25;;;;;;;;;13.50;11.25;;;;;11.56;72.02;99444.75;5073949;28;45574;-73
2023/04/21 00:58:52;;;;;;;;;13.00;12.25;;;;;11.50;71.54;99439.47;5066336;28;45492;-72
2023/04/21 01:01:18;;;;;;;;;11.00;11.00;;;;;11.51;70.77;99446.44;5076798;28;46614;-70
2023/04/21 01:03:46;;;;;;;;;14.50;12.00;;;;;11.37;70.62;99424.53;5076829;28;45441;-70
2023/04/21 01:06:11;;;;;;;;;11.00;10.00;;;;;11.43;70.76;99445.50;5075149;28;45432;-67
2023/04/21 01:08:37;;;;;;;;;11.50;11.25;;;;;11.31;70.75;99427.97;5076281;28;45355;-67
2023/04/21 01:11:12;;;;;;;;;12.50;11.50;;;;;11.29;70.83;99419.22;5074804;28;45850;-67
2023/04/21 01:13:39;;;;;;;;;12.50;10.50;;;;;11.31;71.40;99439.28;5076348;28;45429;-70
2023/04/21 01:16:05;;;;;;;;;12.25;11.25;;;;;11.21;71.58;99428.75;5073727;28;45662;-68
2023/04/21 01:18:31;;;;;;;;;12.25;11.25;;;;;11.24;71.72;99440.13;5076369;28;45471;-67
2023/04/21 01:21:00;;;;;;;;;12.50;11.50;;;;;11.21;71.71;99437.44;5075292;28;45512;-69
2023/04/21 01:23:25;;;;;;;;;11.25;10.50;;;;;11.15;71.79;99438.25;5054808;28;45639;-67
2023/04/21 01:25:52;;;;;;;;;12.25;12.00;;;;;11.09;72.32;99430.38;5075284;28;45370;-68
2023/04/21 01:28:22;;;;;;;;;11.00;11.00;;;;;11.09;72.09;99427.75;5082618;28;45847;-67
2023/04/21 01:30:48;;;;;;;;;9.75;9.25;;;;;11.09;71.75;99432.97;5077979;28;46213;-67
2023/04/21 01:33:13;;;;;;;;;12.00;10.50;;;;;11.10;71.04;99428.63;5078938;28;45587;-67
2023/04/21 01:35:39;;;;;;;;;7.75;7.25;;;;;11.07;71.01;99433.84;5078743;28;45511;-67
2023/04/21 01:38:05;;;;;;;;;10.75;10.75;;;;;11.11;70.94;99444.31;5078777;28;45363;-67
2023/04/21 01:40:31;;;;;;;;;9.75;8.75;;;;;11.07;71.09;99437.31;5077061;28;46060;-66
2023/04/21 01:42:56;;;;;;;;;10.00;9.00;;;;;11.00;71.00;99432.00;5074426;27;45528;-68
2023/04/21 01:45:22;;;;;;;;;11.25;10.00;;;;;11.03;71.42;99437.28;5076230;28;45466;-67
2023/04/21 01:47:47;;;;;;;;;13.00;11.00;;;;;10.94;71.18;99430.19;5075664;27;45316;-67
2023/04/21 01:50:13;;;;;;;;;11.25;10.00;;;;;10.88;71.06;99422.31;5056968;28;46173;-67
2023/04/21 01:52:40;;;;;;;;;10.25;10.00;;;;;10.92;71.44;99440.66;5075106;28;45455;-68
2023/04/21 01:55:06;;;;;;;;;8.00;8.00;;;;;10.85;72.09;99444.06;5057237;28;45498;-67
2023/04/21 01:57:32;;;;;;;;;11.50;9.75;;;;;10.79;72.21;99437.91;5078031;28;45517;-73
2023/04/21 01:59:57;;;;;;;;;1.75;0.75;;;;;10.81;73.06;99447.50;5055573;28;45556;-73
2023/04/21 02:02:23;;;;;;;;;10.00;10.00;;;;;10.88;72.92;99445.81;5073958;28;45367;-73
2023/04/21 02:04:48;;;;;;;;;10.25;10.00;;;;;10.94;72.30;99446.78;5061663;28;45371;-73
2023/04/21 02:07:14;;;;;;;;;9.75;9.75;;;;;10.94;71.54;99431.09;5078402;28;47199;-68
2023/04/21 02:09:40;;;;;;;;;12.25;11.50;;;;;11.06;71.17;99434.69;5077642;27;45495;-71
2023/04/21 02:12:05;;;;;;;;;10.25;9.75;;;;;11.16;70.49;99431.31;5077561;28;45324;-70
2023/04/21 02:14:31;;;;;;;;;9.50;8.00;;;;;11.30;70.11;99447.09;5077665;28;45461;-72
2023/04/21 02:16:56;;;;;;;;;12.00;10.00;;;;;11.39;69.93;99438.50;5077895;28;45272;-73
2023/04/21 02:19:23;;;;;;;;;13.00;11.50;;;;;11.50;70.33;99436.84;5077373;28;46166;-71
2023/04/21 02:21:48;;;;;;;;;11.00;10.50;;;;;11.56;70.32;99436.91;5076773;28;45501;-67
2023/04/21 02:24:14;;;;;;;;;11.25;10.25;;;;;11.54;70.13;99426.41;5077425;28;45300;-71
2023/04/21 02:26:39;;;;;;;;;22.00;18.50;;;;;11.72;71.31;99438.75;5077511;28;45516;-74
2023/04/21 02:29:05;;;;;;;;;13.75;12.25;;;;;11.70;71.42;99430.03;5076681;28;45934;-74
2023/04/21 02:31:30;;;;;;;;;12.50;10.00;;;;;11.62;71.61;99415.13;5076593;28;45742;-74
2023/04/21 02:33:56;;;;;;;;;15.25;10.50;;;;;11.74;71.27;99431.81;5077413;27;45344;-74
2023/04/21 02:36:23;;;;;;;;;9.50;7.75;;;;;11.73;70.21;99430.03;5077386;28;45576;-74
2023/04/21 02:38:48;;;;;;;;;12.00;11.00;;;;;11.62;69.82;99423.88;5076282;28;45985;-68
2023/04/21 02:41:14;;;;;;;;;10.00;10.00;;;;;11.61;69.31;99424.72;5077556;28;45318;-72
2023/04/21 02:43:40;;;;;;;;;10.75;10.00;;;;;11.51;69.34;99415.91;5077339;28;45266;-73
2023/04/21 02:46:06;;;;;;;;;9.25;9.00;;;;;11.53;69.12;99434.25;5077365;27;45461;-73
2023/04/21 02:48:33;;;;;;;;;7.25;7.00;;;;;11.46;69.30;99429.81;5076198;28;46065;-72
2023/04/21 02:50:58;;;;;;;;;7.00;7.00;;;;;11.38;69.65;99428.88;5076108;28;45515;-73
2023/04/21 02:53:24;;;;;;;;;9.75;9.50;;;;;11.28;70.33;99431.44;5076882;28;46037;-74
2023/04/21 02:55:50;;;;;;;;;9.75;9.25;;;;;11.26;70.46;99425.31;5076814;28;45621;-67
2023/04/21 02:58:15;;;;;;;;;9.00;8.00;;;;;11.25;69.85;99423.53;5076733;28;45468;-74
2023/04/21 03:00:41;;;;;;;;;10.50;10.25;;;;;11.22;69.94;99427.88;5076321;28;45544;-73
2023/04/21 03:03:06;;;;;;;;;8.50;8.50;;;;;11.12;69.73;99417.34;5076970;28;45307;-72
2023/04/21 03:05:32;;;;;;;;;10.50;9.00;;;;;11.11;69.70;99417.31;5077140;28;45533;-74
2023/04/21 03:07:57;;;;;;;;;6.25;5.75;;;;;11.08;69.57;99415.56;5076191;28;45964;-68
2023/04/21 03:10:23;;;;;;;;;9.75;7.25;;;;;11.10;69.55;99412.94;5076651;28;45469;-68
2023/04/21 03:12:48;;;;;;;;;9.75;9.00;;;;;11.08;69.10;99414.66;5076692;28;45429;-74
2023/04/21 03:15:15;;;;;;;;;8.00;8.00;;;;;11.00;69.40;99412.00;5076761;28;45628;-73
2023/04/21 03:17:41;;;;;;;;;8.50;8.50;;;;;10.83;70.16;99411.81;5076097;28;46168;-71
2023/04/21 03:20:07;;;;;;;;;11.25;9.75;;;;;10.68;70.15;99415.16;5076708;28;45319;-73
2023/04/21 03:22:37;;;;;;;;;12.00;11.00;;;;;10.53;70.76;99400.16;5075976;28;45647;-74
2023/04/21 03:25:03;;;;;;;;;9.75;8.75;;;;;10.46;71.24;99413.13;5077111;28;45502;-68
2023/04/21 03:27:30;;;;;;;;;10.25;10.25;;;;;10.42;71.25;99406.97;5076136;28;45421;-68
2023/04/21 03:29:55;;;;;;;;;12.00;10.00;;;;;10.31;71.22;99393.81;5076073;28;45337;-73
2023/04/21 03:32:21;;;;;;;;;11.00;10.00;;;;;10.28;71.93;99400.69;5076017;28;45505;-68
2023/04/21 03:34:46;;;;;;;;;10.00;9.50;;;;;10.15;72.66;99408.34;5077086;28;45286;-74
2023/04/21 03:37:12;;;;;;;;;11.25;9.50;;;;;10.06;72.73;99413.44;5075621;28;46288;-73
2023/04/21 03:39:37;;;;;;;;;12.50;12.00;;;;;9.96;73.12;99407.22;5076168;28;45399;-69
2023/04/21 03:42:03;;;;;;;;;13.25;11.00;;;;;9.90;72.13;99406.25;5076432;28;45416;-71
2023/04/21 03:44:29;;;;;;;;;10.25;8.25;;;;;9.81;72.82;99393.97;5076712;28;45463;-74
2023/04/21 03:46:56;;;;;;;;;10.00;10.00;;;;;9.71;73.65;99397.31;5076196;28;45450;-73
2023/04/21 03:49:22;;;;;;;;;13.25;10.75;;;;;9.67;74.03;99401.59;5076508;27;45346;-68
2023/04/21 03:51:48;;;;;;;;;11.00;10.50;;;;;9.71;73.82;99390.34;5076376;28;45552;-73
2023/04/21 03:54:13;;;;;;;;;9.50;9.00;;;;;9.70;73.39;99380.75;5058560;28;45537;-74
2023/04/21 03:56:39;;;;;;;;;9.00;8.00;;;;;9.65;72.88;99361.59;5076215;28;46237;-74
2023/04/21 03:59:05;;;;;;;;;10.00;9.00;;;;;9.80;73.23;99387.00;5076724;28;45296;-73
2023/04/21 04:01:31;;;;;;;;;11.00;9.50;;;;;9.80;72.80;99381.78;5077862;28;45230;-73
2023/04/21 04:03:56;;;;;;;;;9.00;9.00;;;;;9.81;72.83;99377.44;5079754;28;45484;-74
2023/04/21 04:06:22;;;;;;;;;8.50;8.50;;;;;9.83;72.49;99370.50;5080429;28;46122;-67
2023/04/21 04:08:47;;;;;;;;;9.00;9.00;;;;;9.81;72.65;99369.59;5079575;28;45477;-74
2023/04/21 04:11:12;;;;;;;;;9.25;9.25;;;;;9.81;72.54;99372.22;5061870;28;45437;-72
2023/04/21 04:13:38;;;;;;;;;11.25;10.25;;;;;9.75;72.77;99360.84;5079742;28;45544;-73
2023/04/21 04:16:04;;;;;;;;;9.00;8.50;;;;;9.73;73.09;99357.34;5079288;28;46142;-73
2023/04/21 04:18:29;;;;;;;;;11.00;10.00;;;;;9.83;73.46;99360.06;5077790;28;45568;-72
2023/04/21 04:20:55;;;;;;;;;9.75;9.25;;;;;9.87;73.58;99361.88;5080194;28;45430;-69
2023/04/21 04:23:20;;;;;;;;;10.25;10.00;;;;;9.84;72.92;99346.19;5080714;28;45332;-74
2023/04/21 04:25:47;;;;;;;;;14.00;11.25;;;;;9.98;72.90;99373.31;5079423;28;46009;-73
2023/04/21 04:28:14;;;;;;;;;10.50;9.75;;;;;10.01;72.24;99368.16;5079826;28;45303;-74
2023/04/21 04:30:40;;;;;;;;;10.75;10.00;;;;;10.01;71.99;99365.56;5079328;28;45759;-74
2023/04/21 04:33:06;;;;;;;;;9.00;9.00;;;;;9.99;71.50;99368.97;5079823;28;45529;-71
2023/04/21 04:35:31;;;;;;;;;9.00;8.00;;;;;9.96;71.41;99360.25;5079352;28;45956;-73
2023/04/21 04:37:57;;;;;;;;;10.50;9.50;;;;;9.93;71.24;99368.06;5079413;28;45381;-73
2023/04/21 04:40:24;;;;;;;;;14.75;11.50;;;;;9.86;71.56;99358.38;5080221;28;45273;-73
2023/04/21 04:42:50;;;;;;;;;12.75;10.75;;;;;9.89;71.78;99362.78;5079937;28;45392;-73
2023/04/21 04:45:16;;;;;;;;;13.25;12.25;;;;;9.76;72.42;99333.03;5078470;28;45430;-74
2023/04/21 04:47:42;;;;;;;;;15.25;15.00;;;;;9.75;72.82;99339.13;5079518;28;45832;-68
2023/04/21 04:50:08;;;;;;;;;13.25;11.75;;;;;9.77;73.52;99353.06;5078942;28;45702;-70
2023/04/21 04:52:33;;;;;;;;;15.25;11.75;;;;;9.65;74.39;99353.75;5078504;28;45489;-67
2023/04/21 04:54:59;;;;;;;;;14.25;14.25;;;;;9.56;74.27;99351.88;5078110;28;45554;-72
2023/04/21 04:57:24;;;;;;;;;13.50;12.50;;;;;9.52;74.66;99359.63;5078352;27;45513;-73
2023/04/21 04:59:54;;;;;;;;;11.75;11.00;;;;;9.47;74.81;99359.56;5079082;28;45464;-73
2023/04/21 05:02:22;;;;;;;;;11.25;11.00;;;;;9.50;74.26;99349.19;5078105;28;45617;-71
2023/04/21 05:04:48;;;;;;;;;14.75;12.25;;;;;9.42;74.95;99339.50;5077561;28;45508;-73
2023/04/21 05:07:13;;;;;;;;;16.75;14.25;;;;;9.35;75.49;99352.44;5078402;28;45417;-68
2023/04/21 05:09:39;;;;;;;;;12.75;12.25;;;;;9.29;75.79;99348.84;5059879;28;45513;-73
2023/04/21 05:12:04;;;;;;;;;13.75;11.00;;;;;9.15;75.32;99325.16;5077727;28;45238;-68
2023/04/21 05:14:30;;;;;;;;;17.75;17.00;;;;;9.16;76.04;99348.66;5078238;28;46187;-68
2023/04/21 05:16:55;;;;;;;;;27.00;23.25;;;;;9.10;76.50;99347.69;5078581;28;45201;-74
2023/04/21 05:19:21;;;;;;;;;19.00;16.00;;;;;9.06;76.03;99338.94;5076649;28;45485;-73
2023/04/21 05:21:46;;;;;;;;;12.00;10.00;;;;;9.26;75.67;99361.84;5088290;27;45351;-73
2023/04/21 05:24:12;;;;;;;;;15.25;14.25;;;;;9.23;75.42;99347.03;5086603;27;45971;-72
2023/04/21 05:26:37;;;;;;;;;16.50;15.00;;;;;9.34;75.32;99352.41;5089219;27;45425;-73
2023/04/21 05:29:03;;;;;;;;;11.00;8.75;;;;;9.39;74.98;99355.06;5071502;27;45529;-73
2023/04/21 05:31:29;;;;;;;;;12.50;11.25;;;;;9.41;74.08;99348.16;5086300;27;45471;-71
2023/04/21 05:33:54;;;;;;;;;11.75;11.00;;;;;9.53;73.93;99364.00;5084858;27;46131;-70
2023/04/21 05:36:20;;;;;;;;;12.25;11.00;;;;;9.55;73.32;99355.34;5087202;27;45709;-74
2023/04/21 05:38:46;;;;;;;;;14.50;11.50;;;;;9.59;72.93;99357.97;5086594;27;45660;-75
2023/04/21 05:41:11;;;;;;;;;12.50;12.00;;;;;9.63;72.86;99362.38;5086065;27;45650;-74
2023/04/21 05:43:37;;;;;;;;;10.25;9.75;;;;;9.68;73.04;99361.59;5086790;27;46056;-68
2023/04/21 05:46:07;;;;;;;;;12.75;12.75;;;;;9.75;72.79;99360.84;5064923;27;45389;-68
2023/04/21 05:48:33;;;;;;;;;18.00;16.00;;;;;9.72;72.43;99339.06;5083735;27;45366;-72
2023/04/21 05:51:19;;;;;;;;;53.50;42.50;;;;;9.91;72.34;99355.84;5084866;27;45923;-73
2023/04/21 05:53:45;;;;;;;;;43.50;37.75;;;;;9.99;72.50;99348.09;5077154;27;46212;-73
2023/04/21 05:56:12;;;;;;;;;20.75;20.50;;;;;10.12;71.95;99350.91;5082559;27;45537;-67
2023/04/21 05:58:38;;;;;;;;;14.50;13.00;;;;;10.24;71.54;99346.69;5085090;27;45536;-67
2023/04/21 06:01:05;;;;;;;;;15.00;12.00;;;;;10.36;71.41;99349.47;5082182;27;45651;-68
2023/04/21 06:03:31;;;;;;;;;16.00;13.00;;;;;10.43;71.09;99351.31;5082571;27;45587;-71
2023/04/21 06:06:00;;;;;;;;;18.75;18.75;;;;;10.41;71.04;99347.81;5086585;27;45529;-73
2023/04/21 06:08:25;;;;;;;;;17.75;15.75;;;;;10.47;71.07;99347.88;5081232;27;45635;-68
2023/04/21 06:10:51;;;;;;;;;23.75;22.50;;;;;10.45;70.59;99323.47;5079683;27;45547;-72
2023/04/21 06:13:17;;;;;;;;;29.00;26.25;;;;;10.46;70.77;99337.41;5066484;27;46674;-67
2023/04/21 06:15:42;;;;;;;;;10.25;10.00;;;;;10.38;70.97;99316.44;5081314;27;45489;-73
2023/04/21 06:18:08;;;;;;;;;20.00;19.25;;;;;10.55;70.87;99340.13;5072262;28;45358;-67
2023/04/21 06:20:33;;;;;;;;;38.25;34.50;;;;;10.68;70.15;99338.50;5065569;28;45925;-70
2023/04/21 06:22:59;;;;;;;;;29.25;27.50;;;;;10.88;69.64;99343.91;5076535;28;46042;-69
2023/04/21 06:25:24;;;;;;;;;20.00;18.50;;;;;11.28;69.48;99344.25;5076673;28;45473;-70
2023/04/21 06:27:50;;;;;;;;;15.50;14.25;;;;;13.59;65.08;99338.06;5061672;27;45554;-67
2023/04/21 06:30:16;;;;;;;;;14.75;14.25;;;;;15.95;59.40;99321.66;5076681;28;45414;-70
2023/04/21 06:32:42;;;;;;;;;9.00;7.25;;;;;17.82;54.31;99310.03;5075076;28;45355;-71
2023/04/21 06:35:08;;;;;;;;;14.25;13.75;;;;;19.08;49.64;99323.22;5075836;28;45458;-71
2023/04/21 06:37:34;;;;;;;;;12.00;11.00;;;;;20.36;45.45;99311.84;5074533;28;45402;-72
2023/04/21 06:39:59;;;;;;;;;15.00;15.00;;;;;20.94;45.50;99305.69;5076415;28;45533;-72
2023/04/21 06:42:25;;;;;;;;;17.00;15.25;;;;;21.68;42.75;99297.91;5062865;28;45360;-67
2023/04/21 06:44:50;;;;;;;;;20.25;19.50;;;;;22.24;41.51;99298.53;5076763;28;45592;-67
2023/04/21 06:47:16;;;;;;;;;26.00;24.00;;;;;22.42;40.85;99296.97;5077054;28;45544;-71
2023/04/21 06:49:41;;;;;;;;;30.75;21.50;;;;;23.03;38.78;99295.47;5076588;28;45871;-74
2023/04/21 06:52:07;;;;;;;;;20.50;18.50;;;;;23.90;37.98;99290.88;5073328;28;45945;-68
2023/04/21 06:54:33;;;;;;;;;16.75;14.75;;;;;24.67;38.58;99292.69;5062687;28;45650;-74
2023/04/21 06:56:58;;;;;;;;;16.25;15.25;;;;;25.37;36.49;99293.69;5077033;28;45376;-72
2023/04/21 06:59:24;;;;;;;;;10.50;10.50;;;;;25.88;36.16;99299.06;5075425;28;45470;-69
2023/04/21 07:01:53;;;;;;;;;10.00;9.33;;;;;26.51;34.37;99293.00;5075297;28;46908;-68
2023/04/21 07:04:19;;;;;;;;;9.00;9.00;;;;;26.66;33.04;99290.44;5075863;28;45351;-68
2023/04/21 07:06:44;;;;;;;;;15.33;12.33;;;;;26.95;33.06;99295.00;5077859;27;46530;-68
2023/04/21 07:09:10;;;;;;;;;14.67;13.00;;;;;27.18;32.25;99285.63;5086974;27;45557;-69
2023/04/21 07:11:36;;;;;;;;;11.33;9.67;;;;;27.23;32.82;99282.66;5081201;27;45712;-67
2023/04/21 07:14:01;;;;;;;;;12.67;11.00;;;;;27.87;31.87;99287.81;5081869;27;45481;-67
2023/04/21 07:16:27;;;;;;;;;9.33;9.00;;;;;28.47;31.28;99281.41;5081799;27;45438;-74
2023/04/21 07:18:53;;;;;;;;;12.00;11.00;;;;;28.64;29.91;99281.22;5084297;27;45784;-68
2023/04/21 07:21:19;;;;;;;;;11.67;10.67;;;;;28.83;30.22;99290.75;5080880;27;45452;-73
2023/04/21 07:23:44;;;;;;;;;15.00;13.67;;;;;28.67;29.49;99272.97;5068505;27;45462;-73
2023/04/21 07:26:10;;;;;;;;;12.00;11.00;;;;;29.46;30.41;99284.72;5076771;27;45548;-73
2023/04/21 07:28:36;;;;;;;;;13.00;10.67;;;;;29.95;29.37;99275.13;5072541;28;45580;-70
2023/04/21 07:31:02;;;;;;;;;9.00;9.00;;;;;30.21;28.70;99273.25;5074707;28;46183;-69
2023/04/21 07:33:27;;;;;;;;;9.00;8.00;;;;;29.86;28.29;99260.47;5063651;28;45467;-72
2023/04/21 07:35:53;;;;;;;;;11.00;9.33;;;;;30.56;27.87;99258.22;5075119;28;45436;-71
2023/04/21 07:38:18;;;;;;;;;13.00;9.67;;;;;30.70;27.53;99258.09;5078250;28;46782;-73
2023/04/21 07:40:44;;;;;;;;;12.00;11.33;;;;;30.10;28.27;99262.38;5072732;28;45961;-72
2023/04/21 07:43:09;;;;;;;;;11.00;10.67;;;;;29.97;28.11;99257.03;5079148;28;45491;-73
2023/04/21 07:45:35;;;;;;;;;12.33;11.00;;;;;30.07;28.06;99241.06;5061139;28;45599;-72
2023/04/21 07:48:00;;;;;;;;;13.00;11.00;;;;;30.36;28.77;99248.91;5079172;28;45469;-69
2023/04/21 07:50:26;;;;;;;;;11.67;11.33;;;;;30.73;27.77;99252.44;5079134;28;46101;-68
2023/04/21 07:52:52;;;;;;;;;11.33;11.33;;;;;31.47;27.67;99249.63;5079265;28;45421;-73
2023/04/21 07:55:17;;;;;;;;;14.33;13.33;;;;;32.49;26.06;99253.22;5079561;28;45408;-74
2023/04/21 07:57:43;;;;;;;;;10.67;10.33;;;;;32.99;25.59;99240.09;5079161;28;45416;-73
2023/04/21 08:00:09;;;;;;;;;12.00;11.33;;;;;33.47;24.81;99234.22;5078596;28;46029;-74
2023/04/21 08:02:34;;;;;;;;;11.00;10.67;;;;;33.55;25.40;99248.97;5079378;28;45517;-74
2023/04/21 08:05:00;;;;;;;;;8.33;8.33;;;;;34.04;24.15;99242.84;5079184;28;45618;-69
2023/04/21 08:07:25;;;;;;;;;10.33;9.33;;;;;34.66;23.65;99246.38;5044348;28;45429;-73
2023/04/21 08:09:51;;;;;;;;;23.25;23.25;;;;;34.48;23.72;99226.31;5078682;28;45553;-73
2023/04/21 08:12:16;;;;;;;;;17.33;16.67;;;;;35.11;23.19;99233.25;5079226;28;45354;-74
2023/04/21 08:14:42;;;;;;;;;10.67;9.67;;;;;35.39;23.64;99228.81;5079464;28;45829;-69
2023/04/21 08:17:08;;;;;;;;;10.00;9.67;;;;;35.79;23.49;99227.75;5078964;28;45350;-69
2023/04/21 08:19:33;;;;;;;;;11.33;10.00;;;;;36.05;22.08;99225.22;5079170;28;46109;-70
2023/04/21 08:21:59;;;;;;;;;11.00;10.00;;;;;35.03;22.77;99223.09;5079150;28;45408;-69
2023/04/21 08:24:24;;;;;;;;;10.00;9.67;;;;;34.25;24.07;99221.09;5079091;28;45438;-74
2023/04/21 08:26:50;;;;;;;;;9.67;8.33;;;;;33.52;25.30;99216.72;5078763;28;45225;-74
2023/04/21 08:29:15;;;;;;;;;8.33;8.00;;;;;33.78;25.49;99219.88;5078693;28;46007;-74
2023/04/21 08:31:41;;;;;;;;;11.00;10.33;;;;;33.26;25.70;99220.69;5050818;28;45419;-70
2023/04/21 08:34:07;;;;;;;;;13.33;12.33;;;;;32.92;25.47;99221.81;5073794;28;45513;-73
2023/04/21 08:36:32;;;;;;;;;11.00;11.00;;;;;32.78;25.70;99231.09;5062612;28;45313;-73
2023/04/21 08:38:58;;;;;;;;;12.33;9.67;;;;;32.64;26.31;99230.38;5077751;28;45670;-69
2023/04/21 08:41:25;;;;;;;;;10.00;9.67;;;;;32.84;26.11;99223.31;5050394;28;45348;-70
2023/04/21 08:43:51;;;;;;;;;10.67;10.67;;;;;33.13;25.74;99227.25;5072770;28;45538;-75
2023/04/21 08:46:17;;;;;;;;;8.00;8.00;;;;;33.82;24.49;99224.03;5077751;28;45326;-71
2023/04/21 08:48:45;;;;;;;;;9.33;9.00;;;;;34.19;25.78;99207.25;5077948;28;45601;-69
2023/04/21 08:51:21;;;;;;;;;9.00;8.33;;;;;34.46;24.31;99212.91;5078431;28;45370;-74
2023/04/21 08:53:46;;;;;;;;;7.00;7.00;;;;;34.21;24.74;99208.81;5045325;28;45380;-75
2023/04/21 08:56:12;;;;;;;;;10.00;8.67;;;;;34.72;24.17;99206.09;5077493;28;45568;-72
2023/04/21 08:58:37;;;;;;;;;11.00;10.33;;;;;34.41;24.92;99195.31;5071224;28;45913;-73
2023/04/21 09:01:03;;;;;;;;;12.00;12.00;;;;;34.33;25.93;99187.03;5069143;28;45524;-73
2023/04/21 09:03:30;;;;;;;;;15.00;14.00;;;;;34.34;24.98;99189.63;5078695;28;45391;-69
2023/04/21 09:06:06;;;;;;;;;9.67;9.67;;;;;34.25;26.12;99182.31;5077953;28;45247;-72
2023/04/21 09:08:33;;;;;;;;;12.00;12.00;;;;;34.63;25.04;99176.09;5077670;28;45243;-75
2023/04/21 09:11:00;;;;;;;;;13.00;11.33;;;;;35.11;25.06;99184.41;5078304;28;47008;-74
2023/04/21 09:13:36;;;;;;;;;11.67;11.00;;;;;34.84;25.74;99137.16;5077869;27;45468;-69
2023/04/21 09:16:16;;;;;;;;;13.00;12.67;;;;;35.24;25.51;99174.97;5078214;28;45514;-70
2023/04/21 09:18:43;;;;;;;;;16.67;14.33;;;;;35.24;25.00;99182.28;5059697;28;45436;-69
2023/04/21 09:21:12;;;;;;;;;13.67;11.67;;;;;34.74;25.78;99175.13;5078100;28;45536;-70
2023/04/21 09:23:41;;;;;;;;;15.00;14.00;;;;;34.94;25.32;99184.13;5077750;28;45396;-72
2023/04/21 09:26:07;;;;;;;;;15.67;14.67;;;;;34.73;25.42;99175.28;5078312;28;45541;-74
2023/04/21 09:28:33;;;;;;;;;13.33;12.33;;;;;34.66;26.57;99181.28;5077455;28;45398;-74
2023/04/21 09:30:58;;;;;;;;;10.67;10.00;;;;;35.22;25.38;99187.00;5077290;28;45406;-72
2023/04/21 09:33:24;;;;;;;;;14.00;12.33;;;;;35.53;24.88;99187.63;5077808;28;45372;-73
2023/04/21 09:35:51;;;;;;;;;13.00;13.00;;;;;35.18;25.09;99188.28;5077996;28;45148;-73
2023/04/21 09:38:21;;;;;;;;;13.00;12.00;;;;;34.73;25.71;99169.84;5077318;28;45485;-70
2023/04/21 09:40:56;;;;;;;;;12.67;12.00;;;;;34.78;25.74;99173.84;5077039;28;45532;-70
2023/04/21 09:43:21;;;;;;;;;12.33;12.00;;;;;34.43;26.12;99167.06;5077708;28;45347;-71
2023/04/21 09:45:48;;;;;;;;;11.67;11.67;;;;;33.94;27.64;99173.34;5077694;28;45433;-72
2023/04/21 09:48:16;;;;;;;;;11.33;10.33;;;;;34.22;26.78;99183.44;5077143;28;45445;-70
2023/04/21 09:50:42;;;;;;;;;13.00;11.67;;;;;34.13;26.25;99175.25;5076674;28;45501;-74
2023/04/21 09:53:13;;;;;;;;;13.00;13.00;;;;;34.37;26.10;99172.22;5077303;28;45381;-74
2023/04/21 09:55:41;;;;;;;;;12.67;11.67;;;;;34.40;26.52;99170.06;5077160;28;45410;-69
2023/04/21 09:58:10;;;;;;;;;11.33;11.00;;;;;34.26;26.21;99168.63;5041762;28;45462;-69
2023/04/21 10:00:38;;;;;;;;;11.67;11.67;;;;;34.00;27.11;99154.69;5074197;28;45523;-72
2023/04/21 10:03:09;;;;;;;;;11.00;11.00;;;;;34.31;27.21;99164.63;5077468;28;45453;-73
2023/04/21 10:05:35;;;;;;;;;15.33;13.00;;;;;34.32;26.43;99159.09;5077377;28;45431;-74
2023/04/21 10:08:01;;;;;;;;;11.67;10.00;;;;;34.00;27.47;99160.13;5076640;28;45502;-70
2023/04/21 10:10:33;;;;;;;;;13.00;12.00;;;;;34.32;26.42;99152.78;5076608;28;45328;-70
2023/04/21 10:12:59;;;;;;;;;12.00;12.00;;;;;34.10;26.94;99153.84;5078317;28;45563;-74
2023/04/21 10:15:37;;;;;;;;;11.67;10.67;;;;;34.31;26.54;99146.50;5081321;28;45328;-75
2023/04/21 10:18:22;;;;;;;;;12.67;12.00;;;;;34.29;26.65;99158.50;5078687;28;45371;-70
2023/04/21 10:21:03;;;;;;;;;12.00;11.33;;;;;33.85;26.66;99148.78;5077360;28;46577;-72
2023/04/21 10:23:30;;;;;;;;;12.33;11.67;;;;;33.74;27.06;99145.31;5058145;28;45390;-70
2023/04/21 10:26:10;;;;;;;;;13.33;10.67;;;;;33.48;27.58;99143.03;5079685;28;45501;-70
2023/04/21 10:29:04;;;;;;;;;13.00;11.00;;;;;33.52;27.15;99127.38;5075716;28;46219;-70
2023/04/21 10:31:52;;;;;;;;;10.00;10.00;;;;;33.58;26.88;99124.13;5071302;28;45479;-71
2023/04/21 10:34:20;;;;;;;;;8.67;8.67;;;;;33.59;26.51;99125.84;5075178;28;45596;-71
2023/04/21 10:37:06;;;;;;;;;9.00;9.00;;;;;33.33;26.29;99120.88;5076315;28;45279;-71
2023/04/21 10:39:41;;;;;;;;;9.00;9.00;;;;;33.06;26.54;99119.53;5075728;28;46107;-74
2023/04/21 10:42:12;;;;;;;;;9.67;9.00;;;;;32.94;27.05;99123.31;5075584;28;45580;-74
2023/04/21 10:44:56;;;;;;;;;9.00;9.00;;;;;33.25;26.27;99109.88;5076539;28;45311;-71
2023/04/21 10:47:30;;;;;;;;;8.00;8.00;;;;;33.10;26.40;99112.06;5075947;28;45398;-70
2023/04/21 10:49:57;;;;;;;;;9.00;8.67;;;;;32.64;27.60;99102.44;5075291;28;46009;-71
2023/04/21 10:52:33;;;;;;;;;7.00;7.00;;;;;32.04;27.51;99102.03;5076235;27;45595;-71
2023/04/21 10:54:58;;;;;;;;;8.33;7.67;;;;;31.81;27.63;99107.41;5076539;28;45450;-74
2023/04/21 10:57:24;;;;;;;;;8.00;7.00;;;;;31.57;27.44;99110.25;5076463;28;45473;-70
2023/04/21 10:59:49;;;;;;;;;6.67;6.67;;;;;31.70;27.45;99105.59;5076222;28;45945;-74
2023/04/21 11:02:17;;;;;;;;;8.67;7.67;;;;;31.77;27.02;99100.53;5055473;28;45477;-72
2023/04/21 11:04:46;;;;;;;;;6.67;6.67;;;;;31.64;27.22;99099.84;5060226;28;45672;-75
2023/04/21 11:07:15;;;;;;;;;9.33;8.00;;;;;30.87;27.94;99092.34;5076959;28;45268;-73
2023/04/21 11:09:41;;;;;;;;;8.00;6.00;;;;;30.38;28.91;99088.88;5076449;28;45399;-74
2023/04/21 11:12:16;;;;;;;;;8.67;7.67;;;;;30.14;28.93;99076.25;5075979;28;45479;-69
2023/04/21 11:14:44;;;;;;;;;6.67;6.67;;;;;29.93;29.22;99084.06;5038579;28;45445;-74
2023/04/21 11:17:12;;;;;;;;;6.67;6.67;;;;;29.97;29.65;99079.31;5066187;28;45280;-70
2023/04/21 11:19:38;;;;;;;;;7.00;7.00;;;;;29.94;30.00;99079.53;5062573;28;45295;-69
2023/04/21 11:22:04;;;;;;;;;7.67;7.67;;;;;29.92;29.38;99081.47;5072066;28;45393;-73